• Join FlightAware (Why Join?)
  • Login
  • US Flag 
09:09PM EDT


 

Airport Tracker/Info


-or-


 

Live Flight TrackerFlight Track Log ✈ GLA57N ✈ 01-May-2013 ✈ KLBF - KDEN

Flight Track Log - Related Links

Times and Time Zones

All times are in EDT time to prevent confusion due to time zone crossing. See the GLA57N flight status page for this flight to view local times or setup timezone preferences in your user account.

Time Position Orientation Groundspeed Altitude Reporting Facility
EDT Latitude Longitude Course Direction KTS MPH feet Rate Location/Type
07:35PM 41.0933 -100.8592 270° West 208 239 10,800  Level Denver Center
07:36PM 41.0669 -100.9344 245° Southwest 210 242 13,000 1,860 Climbing Denver Center
07:37PM 41.0631 -101.0067 266° West 208 239 14,700 1,740 Climbing Denver Center
07:38PM 41.1167 -101.1925 270° West  Level FlightAware Approximate
07:38PM 41.0633 -101.0775 270° West 204 235 16,700  Level Denver Center
07:39PM 41.1167 -101.2774 270° West  Level FlightAware Approximate
07:39PM 41.0572 -101.1481 263° West 177 204 18,100  Level Denver Center
07:40PM 41.1167 -101.3623 270° West  Level FlightAware Approximate
07:40PM 41.0486 -101.2100 260° West 179 206 18,800  Level Denver Center
07:41PM 41.0411 -101.2831 262° West 181 208 19,900 840 Climbing Denver Center
07:42PM 41.0364 -101.3361 263° West 181 208 20,600 840 Climbing Denver Center
07:43PM 41.0292 -101.4272 264° West 194 223 21,700 660 Climbing Denver Center
07:44PM 41.0247 -101.4997 265° West 204 235 22,000 120 Climbing Denver Center
07:45PM 41.0217 -101.5903 267° West 220 253 22,000  Level Denver Center
07:46PM 41.0158 -101.6953 266° West 224 258 22,100  Climbing Denver Center
07:47PM 41.0108 -101.7764 265° West 231 266 22,100 420 Level Denver Center
07:48PM 41.0047 -101.8525 264° West 220 253 23,000 900 Climbing Denver Center
07:49PM 41.0000 -101.9311 265° West 195 224 24,000 480 Climbing Denver Center
07:50PM 40.9958 -102.0006 265° West 199 229 24,000  Level Denver Center
07:52PM 40.9580 -102.0936 258° West  Level Estimated
07:52PM 40.9803 -102.1653 258° West 218 251 24,000  Level Denver Center
07:53PM 40.9683 -102.2561 260° West 223 257 24,000  Level Denver Center
07:54PM 40.9606 -102.3297 262° West 215 247 24,100  Climbing Denver Center
07:55PM 40.9544 -102.3917 263° West 213 245 24,000  Descending Denver Center
07:57PM 40.9450 -102.4883 263° West 208 239 24,100  Climbing Denver Center
07:58PM 40.9378 -102.5714 263° West 204 235 24,100 -240 Level Denver Center
07:59PM 40.9317 -102.6422 264° West 204 235 23,700 -720 Descending Denver Center
08:00PM 40.9236 -102.7197 262° West 191 220 22,700 -1,200 Descending Denver Center
08:01PM 40.9111 -102.7864 256° West 195 224 21,200 -1,260 Descending Denver Center
08:02PM 40.8931 -102.8708 254° West 212 244 20,100 -1,020 Descending Denver Center
08:03PM 40.8775 -102.9425 254° West 213 245 19,200 -1,020 Descending Denver Center
08:04PM 40.8614 -103.0247 256° West 217 250 18,100 -540 Descending Denver Center
08:05PM 40.8456 -103.1083 256° West 230 265 18,100 -60 Level Denver Center
08:06PM 40.8297 -103.1936 256° West 237 273 18,000  Descending Denver Center
08:07PM 40.8158 -103.2614 255° West 232 267 18,100  Climbing Denver Center
08:08PM 40.7894 -103.3522 249° West 229 264 18,000  Descending Denver Center
08:09PM 40.7508 -103.4231 234° Southwest 237 273 18,100 -60 Climbing Denver Center
08:10PM 40.7181 -103.4833 234° Southwest 238 274 17,900 -840 Descending Denver Center
08:11PM 40.6653 -103.5819 235° Southwest 245 282 16,400 -1,440 Descending Denver Center
08:12PM 40.6156 -103.6503 226° Southwest 255 293 14,900 -1,260 Descending Denver Center
08:13PM 40.5672 -103.7050 221° Southwest 268 308 13,900 -900 Descending Denver Center
08:14PM 40.5025 -103.7847 223° Southwest 271 312 13,100 -420 Descending Denver Center
08:15PM 40.4447 -103.8625 226° Southwest 276 318 13,100  Level Denver Center
08:16PM 40.3931 -103.9350 227° Southwest 274 315 13,100  Level Denver Center
08:17PM 40.3414 -104.0125 229° Southwest 264 304 13,100 -60 Level Denver Center
08:18PM 40.2950 -104.0864 231° Southwest 263 303 13,000  Descending Denver Center
08:19PM 40.2433 -104.1647 229° Southwest 262 302 13,100  Climbing Denver Center
08:20PM 40.1886 -104.2322 223° Southwest 268 308 13,100 -60 Level Denver Center
08:21PM 40.1328 -104.2978 222° Southwest 268 308 13,000  Descending Denver Center
08:22PM 40.0717 -104.3669 221° Southwest 271 312 13,100 60 Climbing Denver Center
08:23PM 40.0500 -104.3833 210° Southwest 272 313 13,100 -60 Level Denver TRACON
08:25PM 39.9167 -104.4833 210° Southwest 272 313 13,000 -480 Descending Denver TRACON
08:25PM 39.8589 -104.4856 182° South 280 322 11,800 -1,080 Descending Denver Center
08:26PM 39.7814 -104.4875 181° South 278 320 11,100 -480 Descending Denver Center
08:27PM 39.7039 -104.4914 182° South 274 315 10,900 -840 Descending Denver Center
08:29PM 39.6108 -104.5003 184° South 268 308 9,200 -1,020 Descending Denver Center
08:30PM 39.5486 -104.5247 197° South 228 262 8,700 -540 Descending Denver Center
08:31PM 39.5453 -104.6000 267° West 211 243 8,100 -300 Descending Denver Center
08:32PM 39.5894 -104.6358 328° Northwest 188 216 8,100  Level Denver Center
08:33PM 39.6378 -104.6433 353° North 163 188 8,100  Level Denver Center
08:34PM 39.6850 -104.6431 360° North 169 194 8,100 -420 Level Denver Center
08:35PM 39.7433 -104.6425 360° North 170 196 7,200 -900 Descending Denver Center
08:36PM 39.7867 -104.6419 North 143 165 6,300 -780 Descending Denver Center
08:37PM 39.8211 -104.6419 360° North 126 145 5,700 -420 Descending Denver Center
08:38PM 39.8528 -104.6406 North 125 144 5,400 -300 Descending Denver Center